createdAt,value
2018-03-14T00:01:09.661Z,7.70
2018-03-14T00:02:09.589Z,6.10
2018-03-14T00:04:02.856Z,5.10
2018-03-14T00:05:02.767Z,6.10
2018-03-14T00:06:56.018Z,5.80
2018-03-14T00:07:55.945Z,6.10
2018-03-14T00:09:49.335Z,4.80
2018-03-14T00:10:49.137Z,7.40
2018-03-14T00:12:42.393Z,5.80
2018-03-14T00:13:42.320Z,7.20
2018-03-14T00:15:35.589Z,5.00
2018-03-14T00:16:35.498Z,5.00
2018-03-14T00:18:28.746Z,6.80
2018-03-14T00:19:28.678Z,7.00
2018-03-14T00:21:22.068Z,5.90
2018-03-14T00:22:21.855Z,5.30
2018-03-14T00:24:15.114Z,8.00
2018-03-14T00:25:15.042Z,7.30
2018-03-14T00:27:08.312Z,8.60
2018-03-14T00:28:08.223Z,7.70
2018-03-14T00:30:01.482Z,7.80
2018-03-14T00:31:01.410Z,7.90
2018-03-14T00:32:54.690Z,8.40
2018-03-14T00:33:54.596Z,7.50
2018-03-14T00:35:47.988Z,9.20
2018-03-14T00:36:47.785Z,7.90
2018-03-14T00:38:41.043Z,7.90
2018-03-14T00:39:40.972Z,8.50
2018-03-14T00:41:34.249Z,7.90
2018-03-14T00:42:34.160Z,9.00
2018-03-14T00:44:27.420Z,8.30
2018-03-14T00:45:27.348Z,10.20
2018-03-14T00:47:20.737Z,9.00
2018-03-14T00:48:20.528Z,9.90
2018-03-14T00:50:13.776Z,8.00
2018-03-14T00:51:13.706Z,7.90
2018-03-14T00:53:06.983Z,7.70
2018-03-14T00:54:06.893Z,7.10
2018-03-14T00:56:00.153Z,9.00
2018-03-14T00:57:00.081Z,8.70
2018-03-14T00:58:53.358Z,7.70
2018-03-14T00:59:53.270Z,10.30
2018-03-14T01:01:46.532Z,7.50
2018-03-14T01:02:46.461Z,9.30
2018-03-14T01:04:39.737Z,9.30
2018-03-14T01:05:39.650Z,10.20
2018-03-14T01:07:32.947Z,7.80
2018-03-14T01:08:32.842Z,7.50
2018-03-14T01:10:26.208Z,9.20
2018-03-14T01:11:26.024Z,7.70
2018-03-14T01:13:19.325Z,8.60
2018-03-14T01:14:19.232Z,6.90
2018-03-14T01:16:12.492Z,7.10
2018-03-14T01:17:12.421Z,11.00
2018-03-14T01:19:05.700Z,7.80
2018-03-14T01:20:05.611Z,9.00
2018-03-14T01:21:58.861Z,6.80
2018-03-14T01:22:58.788Z,7.30
2018-03-14T01:24:52.055Z,8.40
2018-03-14T01:25:51.966Z,8.50
2018-03-14T01:27:45.225Z,9.10
2018-03-14T01:28:45.154Z,10.50
2018-03-14T01:30:38.432Z,8.60
2018-03-14T01:31:38.341Z,8.30
2018-03-14T01:33:31.601Z,8.50
2018-03-14T01:34:31.531Z,9.10
2018-03-14T01:36:24.919Z,9.10
2018-03-14T01:37:24.714Z,11.20
2018-03-14T01:39:17.981Z,11.70
2018-03-14T01:40:17.893Z,9.10
2018-03-14T01:42:11.263Z,9.10
2018-03-14T01:43:11.086Z,9.00
2018-03-14T01:45:04.359Z,10.20
2018-03-14T01:46:04.268Z,10.60
2018-03-14T01:47:57.639Z,11.60
2018-03-14T01:48:57.446Z,10.10
2018-03-14T01:50:50.725Z,11.20
2018-03-14T01:51:50.635Z,10.10
2018-03-14T01:53:43.895Z,9.40
2018-03-14T01:54:43.825Z,11.10
2018-03-14T01:56:37.103Z,10.90
2018-03-14T01:57:37.014Z,9.80
2018-03-14T01:59:30.272Z,11.40
2018-03-14T02:00:30.201Z,10.80
2018-03-14T02:02:23.470Z,12.90
2018-03-14T02:03:23.378Z,11.40
2018-03-14T02:05:16.766Z,8.80
2018-03-14T02:06:16.566Z,10.70
2018-03-14T02:08:09.827Z,10.80
2018-03-14T02:09:09.757Z,12.90
2018-03-14T02:11:03.032Z,11.20
2018-03-14T02:12:02.943Z,10.30
2018-03-14T02:13:56.203Z,10.70
2018-03-14T02:14:56.127Z,9.50
2018-03-14T02:16:50.250Z,10.30
2018-03-14T02:17:50.159Z,10.40
2018-03-14T02:19:43.409Z,10.80
2018-03-14T02:20:43.339Z,10.00
2018-03-14T02:22:36.615Z,8.10
2018-03-14T02:23:36.525Z,9.90
2018-03-14T02:25:29.783Z,7.00
2018-03-14T02:26:29.712Z,7.00
2018-03-14T02:28:22.988Z,7.10
2018-03-14T02:29:22.899Z,9.10
2018-03-14T02:31:16.167Z,7.30
2018-03-14T02:32:16.084Z,6.50
2018-03-14T02:34:09.337Z,7.50
2018-03-14T02:35:09.266Z,5.70
2018-03-14T02:37:02.537Z,5.50
2018-03-14T02:38:02.447Z,5.00
2018-03-14T02:39:55.709Z,8.10
2018-03-14T02:40:55.632Z,5.70
2018-03-14T02:42:49.021Z,5.40
2018-03-14T02:43:48.830Z,6.50
2018-03-14T02:45:42.088Z,6.00
2018-03-14T02:46:42.018Z,7.90
2018-03-14T02:48:35.321Z,5.80
2018-03-14T02:49:35.232Z,6.40
2018-03-14T02:51:28.492Z,6.00
2018-03-14T02:52:28.420Z,4.90
2018-03-14T02:54:21.810Z,6.50
2018-03-14T02:55:21.606Z,5.90
2018-03-14T02:57:14.893Z,7.20
2018-03-14T02:58:14.786Z,6.10
2018-03-14T03:00:08.045Z,6.40
2018-03-14T03:01:07.974Z,6.50
2018-03-14T03:03:01.361Z,8.10
2018-03-14T03:04:01.234Z,6.70
2018-03-14T03:05:54.492Z,5.50
2018-03-14T03:06:54.420Z,7.10
2018-03-14T03:08:47.696Z,6.00
2018-03-14T03:09:47.607Z,7.20
2018-03-14T03:11:40.867Z,6.30
2018-03-14T03:12:40.794Z,6.90
2018-03-14T03:14:34.183Z,6.50
2018-03-14T03:15:33.982Z,7.30
2018-03-14T03:17:27.303Z,7.10
2018-03-14T03:18:27.228Z,6.90
2018-03-14T03:20:20.509Z,7.50
2018-03-14T03:21:20.418Z,7.60
2018-03-14T03:23:13.666Z,7.00
2018-03-14T03:24:13.596Z,7.00
2018-03-14T03:26:06.873Z,6.60
2018-03-14T03:27:06.785Z,8.80
2018-03-14T03:29:00.071Z,10.70
2018-03-14T03:29:59.971Z,8.90
2018-03-14T03:31:53.309Z,6.60
2018-03-14T03:32:53.232Z,5.70
2018-03-14T03:34:46.509Z,7.80
2018-03-14T03:35:46.420Z,7.20
2018-03-14T03:37:39.678Z,6.90
2018-03-14T03:38:39.606Z,6.90
2018-03-14T03:40:32.882Z,8.60
2018-03-14T03:41:32.794Z,7.10
2018-03-14T03:43:26.053Z,9.10
2018-03-14T03:44:25.982Z,7.70
2018-03-14T03:46:19.323Z,9.20
2018-03-14T03:47:19.233Z,6.50
2018-03-14T03:49:12.488Z,8.10
2018-03-14T03:50:12.418Z,8.20
2018-03-14T03:52:05.805Z,8.70
2018-03-14T03:53:05.607Z,7.50
2018-03-14T03:54:58.866Z,6.10
2018-03-14T03:55:58.794Z,8.50
2018-03-14T03:57:52.072Z,7.60
2018-03-14T03:58:51.982Z,8.00
2018-03-14T04:00:45.323Z,7.00
2018-03-14T04:01:45.233Z,6.80
2018-03-14T04:03:38.603Z,6.50
2018-03-14T04:04:38.423Z,7.00
2018-03-14T04:06:31.807Z,5.90
2018-03-14T04:07:31.599Z,5.50
2018-03-14T04:09:24.968Z,7.70
2018-03-14T04:10:24.787Z,6.60
2018-03-14T04:12:18.064Z,6.00
2018-03-14T04:13:17.975Z,5.30
2018-03-14T04:15:11.342Z,5.80
2018-03-14T04:16:11.231Z,5.80
2018-03-14T04:18:04.620Z,5.70
2018-03-14T04:19:04.423Z,5.70
2018-03-14T04:20:57.676Z,7.20
2018-03-14T04:21:57.607Z,6.20
2018-03-14T04:23:50.934Z,6.60
2018-03-14T04:24:50.793Z,5.70
2018-03-14T04:26:44.048Z,5.00
2018-03-14T04:27:43.972Z,6.30
2018-03-14T04:29:37.324Z,6.00
2018-03-14T04:30:37.230Z,6.10
2018-03-14T04:32:30.632Z,6.60
2018-03-14T04:33:30.408Z,5.60
2018-03-14T04:35:23.662Z,7.60
2018-03-14T04:36:23.589Z,5.90
2018-03-14T04:38:16.870Z,6.20
2018-03-14T04:39:16.779Z,6.80
2018-03-14T04:41:10.036Z,6.40
2018-03-14T04:42:09.965Z,6.20
2018-03-14T04:44:03.242Z,7.50
2018-03-14T04:45:03.151Z,6.50
2018-03-14T04:46:56.401Z,6.20
2018-03-14T04:47:56.330Z,7.20
2018-03-14T04:49:49.718Z,5.30
2018-03-14T04:50:49.517Z,6.00
2018-03-14T04:52:42.780Z,7.70
2018-03-14T04:53:42.711Z,7.20
2018-03-14T04:55:35.988Z,6.20
2018-03-14T04:56:35.896Z,6.10
2018-03-14T04:58:29.266Z,5.80
2018-03-14T04:59:29.084Z,7.20
2018-03-14T05:01:22.359Z,5.80
2018-03-14T05:02:22.275Z,5.10
2018-03-14T05:04:15.547Z,6.10
2018-03-14T05:05:15.456Z,7.70
2018-03-14T05:07:08.708Z,6.20
2018-03-14T05:08:08.638Z,7.00
2018-03-14T05:10:01.914Z,7.00
2018-03-14T05:11:01.826Z,6.70
2018-03-14T05:12:55.085Z,6.20
2018-03-14T05:13:55.013Z,7.10
2018-03-14T05:15:48.402Z,7.30
2018-03-14T05:16:48.199Z,7.80
2018-03-14T05:18:41.460Z,6.80
2018-03-14T05:19:41.387Z,6.00
2018-03-14T05:21:34.663Z,6.60
2018-03-14T05:22:34.573Z,6.80
2018-03-14T05:24:27.951Z,8.60
2018-03-14T05:25:27.762Z,7.40
2018-03-14T05:27:21.030Z,7.40
2018-03-14T05:28:20.939Z,7.40
2018-03-14T05:30:14.199Z,7.00
2018-03-14T05:31:14.128Z,7.50
2018-03-14T05:33:07.515Z,8.40
2018-03-14T05:34:07.316Z,8.90
2018-03-14T05:36:00.573Z,8.50
2018-03-14T05:37:00.502Z,8.40
2018-03-14T05:38:53.779Z,7.20
2018-03-14T05:39:53.694Z,7.00
2018-03-14T05:41:46.972Z,7.60
2018-03-14T05:42:46.877Z,7.90
2018-03-14T05:44:40.135Z,8.70
2018-03-14T05:45:40.064Z,11.60
2018-03-14T05:47:33.342Z,6.70
2018-03-14T05:48:33.252Z,7.60
2018-03-14T05:50:26.512Z,9.00
2018-03-14T05:51:26.443Z,9.20
2018-03-14T05:53:19.829Z,8.50
2018-03-14T05:54:19.629Z,8.50
2018-03-14T05:56:12.887Z,10.50
2018-03-14T05:57:12.815Z,8.60
2018-03-14T05:59:06.092Z,9.90
2018-03-14T06:00:06.003Z,10.00
2018-03-14T06:01:59.305Z,11.60
2018-03-14T06:02:59.232Z,11.20
2018-03-14T06:04:52.500Z,11.90
2018-03-14T06:05:52.472Z,10.60
2018-03-14T06:07:45.659Z,11.30
2018-03-14T06:08:45.588Z,9.50
2018-03-14T06:10:38.856Z,11.60
2018-03-14T06:11:38.764Z,12.80
2018-03-14T06:13:32.032Z,10.20
2018-03-14T06:14:31.941Z,10.30
2018-03-14T06:16:25.321Z,11.00
2018-03-14T06:17:25.122Z,10.60
2018-03-14T06:19:18.392Z,9.40
2018-03-14T06:20:18.299Z,9.50
2018-03-14T06:22:11.710Z,8.70
2018-03-14T06:23:11.477Z,9.90
2018-03-14T06:25:05.864Z,9.30
2018-03-14T06:26:05.654Z,8.70
2018-03-14T06:27:58.902Z,11.90
2018-03-14T06:28:58.831Z,10.10
2018-03-14T06:30:52.099Z,8.90
2018-03-14T06:31:52.008Z,9.00
2018-03-14T06:33:45.380Z,10.60
2018-03-14T06:34:45.237Z,7.50
2018-03-14T06:36:38.506Z,10.80
2018-03-14T06:37:38.414Z,10.70
2018-03-14T06:39:31.704Z,10.90
2018-03-14T06:40:31.594Z,14.20
2018-03-14T06:42:24.854Z,9.60
2018-03-14T06:43:24.783Z,11.00
2018-03-14T06:45:18.062Z,9.90
2018-03-14T06:46:17.978Z,7.60
2018-03-14T06:48:11.344Z,8.40
2018-03-14T06:49:11.548Z,8.60
2018-03-14T06:51:04.646Z,8.40
2018-03-14T06:52:04.415Z,8.60
2018-03-14T06:53:57.785Z,9.60
2018-03-14T06:54:57.595Z,10.00
2018-03-14T06:56:51.488Z,11.40
2018-03-14T06:57:50.775Z,10.50
2018-03-14T06:59:44.026Z,9.40
2018-03-14T07:00:43.957Z,10.00
2018-03-14T07:02:37.222Z,8.50
2018-03-14T07:03:37.134Z,10.40
2018-03-14T07:05:30.534Z,8.60
2018-03-14T07:06:30.314Z,10.90
2018-03-14T07:08:23.685Z,10.00
2018-03-14T07:09:23.494Z,9.70
2018-03-14T07:11:16.882Z,10.50
2018-03-14T07:12:16.674Z,8.20
2018-03-14T07:14:09.927Z,9.00
2018-03-14T07:15:09.852Z,7.90
2018-03-14T07:17:03.124Z,7.70
2018-03-14T07:18:03.031Z,9.40
2018-03-14T07:19:56.407Z,8.90
2018-03-14T07:20:56.216Z,8.90
2018-03-14T07:22:49.605Z,10.30
2018-03-14T07:23:49.399Z,9.20
2018-03-14T07:25:42.768Z,7.80
2018-03-14T07:26:42.620Z,8.60
2018-03-14T07:28:36.545Z,8.10
2018-03-14T07:29:35.494Z,8.80
2018-03-14T07:31:28.763Z,7.40
2018-03-14T07:32:28.672Z,8.60
2018-03-14T07:34:23.054Z,8.60
2018-03-14T07:35:22.894Z,7.60
2018-03-14T07:37:16.252Z,9.30
2018-03-14T07:38:16.036Z,9.00
2018-03-14T07:40:09.307Z,7.80
2018-03-14T07:41:09.234Z,7.80
2018-03-14T07:43:02.530Z,10.00
2018-03-14T07:44:02.417Z,9.30
2018-03-14T07:45:55.789Z,8.70
2018-03-14T07:46:55.599Z,10.10
2018-03-14T07:48:48.989Z,8.90
2018-03-14T07:49:48.784Z,9.30
2018-03-14T07:51:42.159Z,8.50
2018-03-14T07:52:41.996Z,9.50
2018-03-14T07:54:35.239Z,8.00
2018-03-14T07:55:35.151Z,8.40
2018-03-14T07:57:28.403Z,10.90
2018-03-14T07:58:28.335Z,12.00
2018-03-14T08:00:21.605Z,9.00
2018-03-14T08:01:21.518Z,8.80
2018-03-14T08:03:14.800Z,9.40
2018-03-14T08:04:14.702Z,7.80
2018-03-14T08:06:08.075Z,6.50
2018-03-14T08:07:07.887Z,6.50
2018-03-14T08:09:01.278Z,8.20
2018-03-14T08:10:01.079Z,7.90
2018-03-14T08:11:54.453Z,7.60
2018-03-14T08:12:54.273Z,6.20
2018-03-14T08:14:47.555Z,7.50
2018-03-14T08:15:47.471Z,6.40
2018-03-14T08:17:40.840Z,7.60
2018-03-14T08:18:40.662Z,6.80
2018-03-14T08:20:34.053Z,6.20
2018-03-14T08:21:33.855Z,5.70
2018-03-14T08:23:27.106Z,7.30
2018-03-14T08:24:27.038Z,8.00
2018-03-14T08:26:20.428Z,6.70
2018-03-14T08:27:20.222Z,6.00
2018-03-14T08:29:13.596Z,7.20
2018-03-14T08:30:13.408Z,5.80
2018-03-14T08:32:06.794Z,5.70
2018-03-14T08:33:06.588Z,4.50
2018-03-14T08:34:59.859Z,7.30
2018-03-14T08:35:59.769Z,5.80
2018-03-14T08:37:53.024Z,3.80
2018-03-14T08:38:52.955Z,7.00
2018-03-14T08:40:46.226Z,3.50
2018-03-14T08:41:46.139Z,3.40
2018-03-14T08:43:39.513Z,2.80
2018-03-14T08:44:39.325Z,3.80
2018-03-14T08:46:32.718Z,4.60
2018-03-14T08:47:32.520Z,6.00
2018-03-14T08:49:25.887Z,3.70
2018-03-14T08:50:25.711Z,5.60
2018-03-14T08:52:18.983Z,3.20
2018-03-14T08:53:18.894Z,3.90
2018-03-14T08:55:12.268Z,3.50
2018-03-14T08:56:12.082Z,3.60
2018-03-14T08:58:05.391Z,2.70
2018-03-14T08:59:05.287Z,3.00
2018-03-14T09:00:58.684Z,2.90
2018-03-14T09:01:58.474Z,2.50
2018-03-14T09:03:51.730Z,4.70
2018-03-14T09:04:51.663Z,3.40
2018-03-14T09:06:45.054Z,2.60
2018-03-14T09:07:44.861Z,3.30
2018-03-14T09:09:38.107Z,3.40
2018-03-14T09:10:38.044Z,4.10
2018-03-14T09:12:31.324Z,2.60
2018-03-14T09:13:31.239Z,4.30
2018-03-14T09:15:24.614Z,4.60
2018-03-14T09:16:24.441Z,3.60
2018-03-14T09:18:17.718Z,5.40
2018-03-14T09:19:17.632Z,3.20
2018-03-14T09:21:10.887Z,4.40
2018-03-14T09:22:10.820Z,4.00
2018-03-14T09:24:04.214Z,5.50
2018-03-14T09:25:04.008Z,2.50
2018-03-14T09:26:57.311Z,3.50
2018-03-14T09:27:57.244Z,3.20
2018-03-14T09:29:50.638Z,2.70
2018-03-14T09:30:50.434Z,2.80
2018-03-14T09:32:43.910Z,3.40
2018-03-14T09:33:43.827Z,3.20
2018-03-14T09:35:37.083Z,3.80
2018-03-14T09:36:37.011Z,3.40
2018-03-14T09:38:30.296Z,3.30
2018-03-14T09:39:30.210Z,3.30
2018-03-14T09:41:23.584Z,4.10
2018-03-14T09:42:23.410Z,3.40
2018-03-14T09:44:16.695Z,4.00
2018-03-14T09:45:16.670Z,6.10
2018-03-14T09:47:09.866Z,4.50
2018-03-14T09:48:09.799Z,4.80
2018-03-14T09:50:03.198Z,3.90
2018-03-14T09:51:02.997Z,2.60
2018-03-14T09:52:56.372Z,4.30
2018-03-14T09:53:56.216Z,5.70
2018-03-14T09:55:49.482Z,2.50
2018-03-14T09:56:49.397Z,3.70
2018-03-14T09:58:42.803Z,4.50
2018-03-14T09:59:42.594Z,3.50
2018-03-14T10:01:35.860Z,3.30
2018-03-14T10:02:35.795Z,3.50
2018-03-14T10:04:29.078Z,3.20
2018-03-14T10:05:28.993Z,2.60
2018-03-14T10:07:22.263Z,4.50
2018-03-14T10:08:22.201Z,2.10
2018-03-14T10:10:15.484Z,3.80
2018-03-14T10:11:15.399Z,1.70
2018-03-14T10:13:08.677Z,1.50
2018-03-14T10:14:08.613Z,1.50
2018-03-14T10:16:02.012Z,4.30
2018-03-14T10:17:01.806Z,1.90
2018-03-14T10:18:55.084Z,2.90
2018-03-14T10:19:55.001Z,3.00
2018-03-14T10:21:48.381Z,2.80
2018-03-14T10:22:48.195Z,2.90
2018-03-14T10:24:41.590Z,4.20
2018-03-14T10:25:41.477Z,2.20
2018-03-14T10:27:34.650Z,2.50
2018-03-14T10:28:34.583Z,2.50
2018-03-14T10:30:27.865Z,2.20
2018-03-14T10:31:27.777Z,7.50
2018-03-14T10:33:21.111Z,2.60
2018-03-14T10:34:20.969Z,3.70
2018-03-14T10:36:14.247Z,4.00
2018-03-14T10:37:14.164Z,2.30
2018-03-14T10:39:07.539Z,3.60
2018-03-14T10:40:07.355Z,2.80
2018-03-14T10:42:00.635Z,3.00
2018-03-14T10:43:00.547Z,3.70
2018-03-14T10:44:53.805Z,3.90
2018-03-14T10:45:53.740Z,5.40
2018-03-14T10:47:47.239Z,3.80
2018-03-14T10:48:46.988Z,3.10
2018-03-14T10:50:40.189Z,2.60
2018-03-14T10:51:40.120Z,3.10
2018-03-14T10:53:33.515Z,3.60
2018-03-14T10:54:33.322Z,3.60
2018-03-14T10:56:26.609Z,2.70
2018-03-14T10:57:26.514Z,2.60
2018-03-14T10:59:19.789Z,3.80
2018-03-14T11:00:19.714Z,4.50
2018-03-14T11:02:12.998Z,3.40
2018-03-14T11:03:12.912Z,3.10
2018-03-14T11:05:06.180Z,4.80
2018-03-14T11:06:06.110Z,4.10
2018-03-14T11:07:59.395Z,4.40
2018-03-14T11:08:59.308Z,5.00
2018-03-14T11:10:52.582Z,3.80
2018-03-14T11:11:52.511Z,4.70
2018-03-14T11:13:45.796Z,3.70
2018-03-14T11:14:45.710Z,3.50
2018-03-14T11:16:39.084Z,3.70
2018-03-14T11:17:38.900Z,3.80
2018-03-14T11:19:32.296Z,2.80
2018-03-14T11:20:32.099Z,2.80
2018-03-14T11:22:25.364Z,3.20
2018-03-14T11:23:25.298Z,4.40
2018-03-14T11:25:18.688Z,3.00
2018-03-14T11:26:18.509Z,5.20
2018-03-14T11:28:11.911Z,3.20
2018-03-14T11:29:11.744Z,3.70
2018-03-14T11:31:05.071Z,3.00
2018-03-14T11:32:04.894Z,2.90
2018-03-14T11:33:58.326Z,3.60
2018-03-14T11:34:58.102Z,4.30
2018-03-14T11:36:51.360Z,4.30
2018-03-14T11:37:51.289Z,4.10
2018-03-14T11:39:44.683Z,3.30
2018-03-14T11:40:44.510Z,4.50
2018-03-14T11:42:37.787Z,3.40
2018-03-14T11:43:37.719Z,5.50
2018-03-14T11:45:31.006Z,3.60
2018-03-14T11:46:30.919Z,4.40
2018-03-14T11:48:24.185Z,4.30
2018-03-14T11:49:24.122Z,4.50
2018-03-14T11:51:17.401Z,3.50
2018-03-14T11:52:17.317Z,3.70
2018-03-14T11:54:10.604Z,3.30
2018-03-14T11:55:10.519Z,3.50
2018-03-14T11:57:03.776Z,4.20
2018-03-14T11:58:03.710Z,3.60
2018-03-14T11:59:56.986Z,4.00
2018-03-14T12:00:56.900Z,3.60
2018-03-14T12:02:50.276Z,4.30
2018-03-14T12:03:50.092Z,4.70
2018-03-14T12:05:43.485Z,4.10
2018-03-14T12:06:43.283Z,5.30
2018-03-14T12:08:36.538Z,4.00
2018-03-14T12:09:36.472Z,4.40
2018-03-14T12:11:29.868Z,5.80
2018-03-14T12:12:29.674Z,5.10
2018-03-14T12:14:22.931Z,3.40
2018-03-14T12:15:22.867Z,4.60
2018-03-14T12:17:16.141Z,3.70
2018-03-14T12:18:16.058Z,3.90
2018-03-14T12:20:09.451Z,5.80
2018-03-14T12:21:09.249Z,5.40
2018-03-14T12:23:02.508Z,4.70
2018-03-14T12:24:02.441Z,4.40
2018-03-14T12:25:55.834Z,4.10
2018-03-14T12:26:55.633Z,4.80
2018-03-14T12:28:48.891Z,4.80
2018-03-14T12:29:48.826Z,3.90
2018-03-14T12:31:42.106Z,7.10
2018-03-14T12:32:42.023Z,5.10
2018-03-14T12:34:35.304Z,5.40
2018-03-14T12:35:35.237Z,5.80
2018-03-14T12:37:28.631Z,4.40
2018-03-14T12:38:28.470Z,4.00
2018-03-14T12:40:21.690Z,4.20
2018-03-14T12:41:21.623Z,5.70
2018-03-14T12:43:14.897Z,4.30
2018-03-14T12:44:14.816Z,4.20
2018-03-14T12:46:08.093Z,4.00
2018-03-14T12:47:08.012Z,4.70
2018-03-14T12:49:01.323Z,6.30
2018-03-14T12:50:01.239Z,6.50
2018-03-14T12:51:54.529Z,5.70
2018-03-14T12:52:54.433Z,6.10
2018-03-14T12:54:47.690Z,5.20
2018-03-14T12:55:47.625Z,5.90
2018-03-14T12:57:40.941Z,4.40
2018-03-14T12:58:40.825Z,4.50
2018-03-14T13:00:34.094Z,6.50
2018-03-14T13:01:34.027Z,6.10
2018-03-14T13:03:27.419Z,4.60
2018-03-14T13:04:27.238Z,5.80
2018-03-14T13:06:20.613Z,6.10
2018-03-14T13:07:20.437Z,6.50
2018-03-14T13:09:13.729Z,6.70
2018-03-14T13:10:13.640Z,5.50
2018-03-14T13:12:06.944Z,5.50
2018-03-14T13:13:06.862Z,6.00
2018-03-14T13:15:00.215Z,5.50
2018-03-14T13:16:00.039Z,4.40
2018-03-14T13:17:53.323Z,4.80
2018-03-14T13:18:53.240Z,5.70
2018-03-14T13:20:46.506Z,5.50
2018-03-14T13:21:46.439Z,6.30
2018-03-14T13:23:39.725Z,4.70
2018-03-14T13:24:39.644Z,7.20
2018-03-14T13:26:33.024Z,6.50
2018-03-14T13:27:32.832Z,4.20
2018-03-14T13:29:26.119Z,4.60
2018-03-14T13:30:26.036Z,5.80
2018-03-14T13:32:20.293Z,4.30
2018-03-14T13:33:20.227Z,4.60
2018-03-14T13:35:13.620Z,4.60
2018-03-14T13:36:13.429Z,4.90
2018-03-14T13:38:06.806Z,5.30
2018-03-14T13:39:06.620Z,5.20
2018-03-14T13:41:00.014Z,5.00
2018-03-14T13:41:59.822Z,5.20
2018-03-14T13:43:53.090Z,4.40
2018-03-14T13:44:53.023Z,5.20
2018-03-14T13:46:46.302Z,6.20
2018-03-14T13:47:46.214Z,7.00
2018-03-14T13:49:39.502Z,4.80
2018-03-14T13:50:39.418Z,4.40
2018-03-14T13:52:32.685Z,5.30
2018-03-14T13:53:32.614Z,4.40
2018-03-14T13:55:25.898Z,5.10
2018-03-14T13:56:25.813Z,5.60
2018-03-14T13:58:19.150Z,4.50
2018-03-14T13:59:19.022Z,5.50
2018-03-14T14:01:12.419Z,4.60
2018-03-14T14:02:12.223Z,4.40
2018-03-14T14:04:05.488Z,5.20
2018-03-14T14:05:05.421Z,6.30
2018-03-14T14:06:58.701Z,5.40
2018-03-14T14:07:58.613Z,7.60
2018-03-14T14:09:51.996Z,6.30
2018-03-14T14:10:51.815Z,5.00
2018-03-14T14:12:45.204Z,4.90
2018-03-14T14:13:45.010Z,6.70
2018-03-14T14:15:38.305Z,6.20
2018-03-14T14:16:38.199Z,4.80
2018-03-14T14:18:31.465Z,5.10
2018-03-14T14:19:31.397Z,5.80
2018-03-14T14:21:24.683Z,6.40
2018-03-14T14:22:24.600Z,5.90
2018-03-14T14:24:17.852Z,5.40
2018-03-14T14:25:17.785Z,5.60
2018-03-14T14:27:11.068Z,6.50
2018-03-14T14:28:10.979Z,6.00
2018-03-14T14:30:04.363Z,6.00
2018-03-14T14:31:04.173Z,4.50
2018-03-14T14:32:57.570Z,8.30
2018-03-14T14:33:57.372Z,6.40
2018-03-14T14:35:50.645Z,5.70
2018-03-14T14:36:50.568Z,8.50
2018-03-14T14:38:43.852Z,7.30
2018-03-14T14:39:43.764Z,5.40
2018-03-14T14:41:37.239Z,4.70
2018-03-14T14:42:36.951Z,4.30
2018-03-14T14:44:30.326Z,4.80
2018-03-14T14:45:30.147Z,5.30
2018-03-14T14:47:23.539Z,6.90
2018-03-14T14:48:23.336Z,5.80
2018-03-14T14:50:16.602Z,3.80
2018-03-14T14:51:16.534Z,4.50
2018-03-14T14:53:09.817Z,7.20
2018-03-14T14:54:09.784Z,5.40
2018-03-14T14:56:03.002Z,5.10
2018-03-14T14:57:02.933Z,6.80
2018-03-14T14:58:56.207Z,4.80
2018-03-14T14:59:56.120Z,5.70
2018-03-14T15:01:49.450Z,3.40
2018-03-14T15:02:49.377Z,5.00
2018-03-14T15:04:42.649Z,5.10
2018-03-14T15:05:42.561Z,4.50
2018-03-14T15:07:35.829Z,4.60
2018-03-14T15:08:35.760Z,5.80
2018-03-14T15:10:29.032Z,4.20
2018-03-14T15:11:28.946Z,4.00
2018-03-14T15:13:22.228Z,4.80
2018-03-14T15:14:22.141Z,4.90
2018-03-14T15:16:15.516Z,5.70
2018-03-14T15:17:15.338Z,5.90
2018-03-14T15:19:08.609Z,5.40
2018-03-14T15:20:08.524Z,4.10
2018-03-14T15:22:01.792Z,4.50
2018-03-14T15:23:01.719Z,5.10
2018-03-14T15:24:55.003Z,6.40
2018-03-14T15:25:54.915Z,5.70
2018-03-14T15:27:48.183Z,4.90
2018-03-14T15:28:48.112Z,4.80
2018-03-14T15:30:41.393Z,8.20
2018-03-14T15:31:41.307Z,5.20
2018-03-14T15:33:34.569Z,4.40
2018-03-14T15:34:34.501Z,5.80
2018-03-14T15:36:27.779Z,5.70
2018-03-14T15:37:27.690Z,4.50
2018-03-14T15:39:21.100Z,4.50
2018-03-14T15:40:20.872Z,5.40
2018-03-14T15:42:14.138Z,7.00
2018-03-14T15:43:14.070Z,5.50
2018-03-14T15:45:07.358Z,6.40
2018-03-14T15:46:07.266Z,5.20
2018-03-14T15:48:00.530Z,5.70
2018-03-14T15:49:00.463Z,7.60
2018-03-14T15:50:53.740Z,4.20
2018-03-14T15:51:53.652Z,4.90
2018-03-14T15:53:47.027Z,6.00
2018-03-14T15:54:46.848Z,6.40
2018-03-14T15:56:40.241Z,5.00
2018-03-14T15:57:40.037Z,4.40
2018-03-14T15:59:33.305Z,5.60
2018-03-14T16:00:33.236Z,5.30
2018-03-14T16:02:26.521Z,5.30
2018-03-14T16:03:26.432Z,4.40
2018-03-14T16:05:19.738Z,5.30
2018-03-14T16:06:19.626Z,6.20
2018-03-14T16:08:12.888Z,4.50
2018-03-14T16:09:12.838Z,4.20
2018-03-14T16:11:06.091Z,5.90
2018-03-14T16:12:06.005Z,5.70
2018-03-14T16:13:59.305Z,3.60
2018-03-14T16:14:59.236Z,3.60
2018-03-14T16:16:52.509Z,3.90
2018-03-14T16:17:52.446Z,4.30
2018-03-14T16:19:45.685Z,5.00
2018-03-14T16:20:45.621Z,5.30
2018-03-14T16:22:39.006Z,4.10
2018-03-14T16:23:38.811Z,4.00
2018-03-14T16:25:32.074Z,7.40
2018-03-14T16:26:32.005Z,6.60
2018-03-14T16:28:25.373Z,3.90
2018-03-14T16:29:25.241Z,5.20
2018-03-14T16:31:18.529Z,4.50
2018-03-14T16:32:18.432Z,4.90
2018-03-14T16:34:11.693Z,6.80
2018-03-14T16:35:11.625Z,5.20
2018-03-14T16:37:04.911Z,7.50
2018-03-14T16:38:04.824Z,6.30
2018-03-14T16:39:58.087Z,6.50
2018-03-14T16:40:58.018Z,6.60
2018-03-14T16:42:51.324Z,8.10
2018-03-14T16:43:51.233Z,8.30
2018-03-14T16:45:44.495Z,6.60
2018-03-14T16:46:44.427Z,7.60
2018-03-14T16:48:37.712Z,5.80
2018-03-14T16:49:37.620Z,6.10
2018-03-14T16:51:30.888Z,4.70
2018-03-14T16:52:30.824Z,5.20
2018-03-14T16:54:24.097Z,6.90
2018-03-14T16:55:24.012Z,6.40
2018-03-14T16:57:17.322Z,4.10
2018-03-14T16:58:17.236Z,5.80
2018-03-14T17:00:10.610Z,5.70
2018-03-14T17:01:10.430Z,4.80
2018-03-14T17:03:03.713Z,5.40
2018-03-14T17:04:03.622Z,5.60
2018-03-14T17:05:56.885Z,5.10
2018-03-14T17:06:56.816Z,5.20
2018-03-14T17:08:50.097Z,8.20
2018-03-14T17:09:50.009Z,7.40
2018-03-14T17:11:43.301Z,5.00
2018-03-14T17:12:43.232Z,4.80
2018-03-14T17:14:36.667Z,5.00
2018-03-14T17:15:36.447Z,4.30
2018-03-14T17:17:29.685Z,7.50
2018-03-14T17:18:29.616Z,4.20
2018-03-14T17:20:22.895Z,5.50
2018-03-14T17:21:22.806Z,6.60
2018-03-14T17:23:16.196Z,5.60
2018-03-14T17:24:15.998Z,6.10
2018-03-14T17:26:09.302Z,5.60
2018-03-14T17:27:09.231Z,5.10
2018-03-14T17:29:02.512Z,5.20
2018-03-14T17:30:02.425Z,4.70
2018-03-14T17:31:55.691Z,4.50
2018-03-14T17:32:55.615Z,4.30
2018-03-14T17:34:48.894Z,5.10
2018-03-14T17:35:48.805Z,7.10
2018-03-14T17:37:42.066Z,4.50
2018-03-14T17:38:41.995Z,6.10
2018-03-14T17:40:35.330Z,5.20
2018-03-14T17:41:35.231Z,4.50
2018-03-14T17:43:28.602Z,7.80
2018-03-14T17:44:28.421Z,8.00
2018-03-14T17:46:21.701Z,5.20
2018-03-14T17:47:21.606Z,5.00
2018-03-14T17:49:14.864Z,5.90
2018-03-14T17:50:14.794Z,9.20
2018-03-14T17:52:08.078Z,5.60
2018-03-14T17:53:07.987Z,6.20
2018-03-14T17:55:01.301Z,5.20
2018-03-14T17:56:01.229Z,5.80
2018-03-14T17:57:54.619Z,5.90
2018-03-14T17:58:54.421Z,6.20
2018-03-14T18:00:47.728Z,6.00
2018-03-14T18:01:47.625Z,6.10
2018-03-14T18:03:40.886Z,7.10
2018-03-14T18:04:40.817Z,7.70
2018-03-14T18:06:34.097Z,7.40
2018-03-14T18:07:34.009Z,5.80
2018-03-14T18:09:27.306Z,8.70
2018-03-14T18:10:27.230Z,10.00
2018-03-14T18:12:20.518Z,8.00
2018-03-14T18:13:20.422Z,8.70
2018-03-14T18:15:13.691Z,6.50
2018-03-14T18:16:13.613Z,8.10
2018-03-14T18:18:06.892Z,6.10
2018-03-14T18:19:06.807Z,6.30
2018-03-14T18:21:00.070Z,6.60
2018-03-14T18:21:59.995Z,7.30
2018-03-14T18:23:53.320Z,6.70
2018-03-14T18:24:53.232Z,12.50
2018-03-14T18:26:46.622Z,7.90
2018-03-14T18:27:46.414Z,6.70
2018-03-14T18:29:39.698Z,7.00
2018-03-14T18:30:39.608Z,9.00
2018-03-14T18:32:32.893Z,7.30
2018-03-14T18:33:32.808Z,7.70
2018-03-14T18:35:26.075Z,7.50
2018-03-14T18:36:26.005Z,8.00
2018-03-14T18:38:19.320Z,8.00
2018-03-14T18:39:19.231Z,8.80
2018-03-14T18:41:12.492Z,7.20
2018-03-14T18:42:12.422Z,6.90
2018-03-14T18:44:05.703Z,8.60
2018-03-14T18:45:05.622Z,8.90
2018-03-14T18:46:58.865Z,5.70
2018-03-14T18:47:58.797Z,6.70
2018-03-14T18:49:52.075Z,7.30
2018-03-14T18:50:51.988Z,7.90
2018-03-14T18:52:45.356Z,7.40
2018-03-14T18:53:45.232Z,7.10
2018-03-14T18:55:38.509Z,8.20
2018-03-14T18:56:38.418Z,6.80
2018-03-14T18:58:31.679Z,9.60
2018-03-14T18:59:31.606Z,8.40
2018-03-14T19:01:24.896Z,9.30
2018-03-14T19:02:24.802Z,8.70
2018-03-14T19:04:18.086Z,7.20
2018-03-14T19:05:17.995Z,8.40
2018-03-14T19:07:11.304Z,10.00
2018-03-14T19:08:11.230Z,11.70
2018-03-14T19:10:04.513Z,9.00